createdAt,value
2022-09-14T00:00:13.025Z,2.40
2022-09-14T00:01:25.192Z,2.50
2022-09-14T00:02:13.048Z,2.30
2022-09-14T00:03:12.944Z,2.40
2022-09-14T00:04:12.871Z,2.50
2022-09-14T00:05:12.831Z,2.80
2022-09-14T00:06:12.796Z,2.50
2022-09-14T00:07:12.771Z,2.30
2022-09-14T00:08:12.719Z,2.50
2022-09-14T00:09:12.682Z,2.50
2022-09-14T00:10:12.645Z,2.60
2022-09-14T00:11:12.606Z,2.70
2022-09-14T00:12:12.575Z,2.70
2022-09-14T00:13:12.544Z,2.60
2022-09-14T00:14:12.497Z,2.40
2022-09-14T00:15:12.459Z,2.60
2022-09-14T00:16:12.432Z,3.00
2022-09-14T00:17:12.383Z,2.70
2022-09-14T00:18:12.348Z,3.00
2022-09-14T00:19:12.319Z,2.80
2022-09-14T00:20:12.272Z,2.90
2022-09-14T00:21:12.234Z,2.70
2022-09-14T00:22:12.201Z,2.60
2022-09-14T00:23:12.159Z,2.60
2022-09-14T00:24:12.132Z,2.20
2022-09-14T00:25:12.085Z,2.50
2022-09-14T00:26:12.049Z,2.50
2022-09-14T00:27:12.010Z,2.60
2022-09-14T00:28:11.974Z,2.40
2022-09-14T00:29:11.935Z,2.40
2022-09-14T00:30:11.910Z,2.60
2022-09-14T00:31:11.859Z,2.50
2022-09-14T00:32:11.963Z,2.60
2022-09-14T00:33:11.784Z,2.50
2022-09-14T00:34:11.752Z,2.50
2022-09-14T00:35:11.717Z,2.70
2022-09-14T00:36:11.673Z,2.40
2022-09-14T00:37:11.633Z,2.30
2022-09-14T00:38:11.597Z,2.40
2022-09-14T00:39:11.565Z,2.40
2022-09-14T00:40:11.656Z,2.80
2022-09-14T00:41:11.494Z,2.40
2022-09-14T00:42:11.448Z,2.60
2022-09-14T00:43:11.408Z,2.40
2022-09-14T00:44:11.380Z,2.40
2022-09-14T00:45:11.334Z,2.60
2022-09-14T00:46:11.343Z,2.30
2022-09-14T00:47:11.282Z,2.60
2022-09-14T00:48:11.223Z,2.30
2022-09-14T00:49:11.185Z,2.60
2022-09-14T00:50:11.145Z,2.90
2022-09-14T00:51:11.107Z,2.50
2022-09-14T00:52:11.071Z,2.50
2022-09-14T00:53:11.044Z,2.60
2022-09-14T00:54:10.996Z,2.40
2022-09-14T00:55:10.956Z,2.50
2022-09-14T00:56:10.920Z,2.50
2022-09-14T00:57:10.880Z,2.40
2022-09-14T00:58:10.847Z,2.50
2022-09-14T00:59:10.819Z,2.50
2022-09-14T01:00:10.770Z,2.70
2022-09-14T01:01:10.814Z,2.60
2022-09-14T01:02:10.733Z,2.70
2022-09-14T01:03:10.656Z,2.60
2022-09-14T01:04:10.618Z,2.40
2022-09-14T01:05:10.587Z,2.40
2022-09-14T01:06:10.556Z,2.70
2022-09-14T01:07:10.503Z,2.50
2022-09-14T01:08:10.468Z,2.60
2022-09-14T01:09:10.430Z,2.50
2022-09-14T01:10:10.392Z,2.70
2022-09-14T01:11:10.353Z,2.70
2022-09-14T01:12:10.332Z,2.70
2022-09-14T01:13:10.277Z,2.40
2022-09-14T01:14:10.238Z,2.60
2022-09-14T01:15:10.203Z,2.40
2022-09-14T01:16:10.241Z,2.40
2022-09-14T01:17:10.127Z,2.70
2022-09-14T01:18:10.102Z,2.40
2022-09-14T01:19:10.052Z,2.50
2022-09-14T01:20:10.017Z,2.80
2022-09-14T01:21:09.977Z,2.60
2022-09-14T01:22:09.941Z,2.60
2022-09-14T01:23:09.917Z,2.60
2022-09-14T01:24:09.865Z,2.40
2022-09-14T01:25:09.827Z,2.80
2022-09-14T01:26:09.791Z,2.50
2022-09-14T01:27:09.787Z,2.70
2022-09-14T01:28:09.729Z,2.60
2022-09-14T01:29:09.675Z,2.50
2022-09-14T01:30:09.640Z,2.50
2022-09-14T01:31:09.705Z,2.50
2022-09-14T01:32:09.564Z,2.50
2022-09-14T01:33:09.522Z,2.70
2022-09-14T01:34:09.499Z,2.40
2022-09-14T01:35:12.083Z,2.70
2022-09-14T01:36:09.413Z,2.50
2022-09-14T01:37:09.376Z,2.30
2022-09-14T01:38:09.338Z,2.40
2022-09-14T01:39:09.300Z,2.60
2022-09-14T01:40:09.313Z,2.40
2022-09-14T01:41:09.228Z,2.40
2022-09-14T01:42:09.187Z,2.40
2022-09-14T01:43:09.148Z,2.70
2022-09-14T01:44:09.119Z,2.40
2022-09-14T01:45:09.071Z,2.50
2022-09-14T01:46:09.141Z,2.60
2022-09-14T01:47:08.996Z,2.50
2022-09-14T01:48:08.958Z,2.70
2022-09-14T01:49:08.925Z,2.60
2022-09-14T01:50:08.885Z,2.70
2022-09-14T01:51:08.845Z,2.40
2022-09-14T01:52:08.824Z,2.50
2022-09-14T01:53:08.793Z,2.60
2022-09-14T01:54:08.737Z,2.40
2022-09-14T01:55:08.695Z,2.40
2022-09-14T01:56:08.658Z,2.60
2022-09-14T01:57:08.621Z,2.30
2022-09-14T01:58:08.595Z,2.50
2022-09-14T01:59:08.555Z,2.50
2022-09-14T02:00:08.507Z,2.60
2022-09-14T02:01:08.498Z,2.70
2022-09-14T02:02:08.498Z,2.60
2022-09-14T02:03:08.393Z,2.50
2022-09-14T02:04:08.375Z,2.80
2022-09-14T02:05:08.321Z,2.60
2022-09-14T02:06:08.285Z,2.70
2022-09-14T02:07:08.253Z,2.40
2022-09-14T02:08:08.208Z,2.40
2022-09-14T02:09:08.166Z,2.50
2022-09-14T02:10:08.151Z,2.60
2022-09-14T02:11:08.092Z,2.80
2022-09-14T02:12:08.054Z,2.90
2022-09-14T02:13:08.029Z,3.20
2022-09-14T02:14:07.982Z,3.00
2022-09-14T02:15:07.945Z,3.00
2022-09-14T02:16:07.957Z,3.00
2022-09-14T02:17:07.866Z,3.30
2022-09-14T02:18:07.830Z,3.50
2022-09-14T02:19:07.800Z,3.30
2022-09-14T02:20:07.756Z,3.30
2022-09-14T02:21:07.718Z,3.40
2022-09-14T02:22:07.689Z,3.30
2022-09-14T02:23:07.641Z,3.30
2022-09-14T02:24:07.604Z,3.10
2022-09-14T02:25:07.584Z,2.90
2022-09-14T02:26:07.529Z,3.20
2022-09-14T02:27:07.489Z,3.20
2022-09-14T02:28:07.456Z,3.00
2022-09-14T02:29:07.418Z,3.00
2022-09-14T02:30:07.385Z,3.30
2022-09-14T02:31:07.370Z,3.50
2022-09-14T02:32:07.304Z,3.60
2022-09-14T02:33:07.273Z,3.30
2022-09-14T02:34:07.229Z,3.40
2022-09-14T02:35:07.189Z,3.40
2022-09-14T02:36:07.194Z,3.60
2022-09-14T02:37:07.124Z,3.80
2022-09-14T02:38:07.078Z,3.60
2022-09-14T02:39:07.040Z,3.50
2022-09-14T02:40:07.061Z,4.00
2022-09-14T02:41:06.967Z,3.70
2022-09-14T02:42:06.956Z,4.00
2022-09-14T02:43:06.900Z,4.00
2022-09-14T02:44:06.863Z,3.90
2022-09-14T02:45:06.937Z,3.90
2022-09-14T02:46:07.584Z,3.90
2022-09-14T02:47:06.822Z,3.90
2022-09-14T02:48:06.701Z,3.70
2022-09-14T02:49:06.677Z,4.00
2022-09-14T02:50:06.627Z,3.90
2022-09-14T02:51:06.587Z,4.50
2022-09-14T02:52:06.548Z,4.30
2022-09-14T02:53:06.511Z,4.40
2022-09-14T02:54:06.499Z,4.30
2022-09-14T02:55:06.507Z,4.40
2022-09-14T02:56:06.404Z,4.30
2022-09-14T02:57:06.362Z,4.30
2022-09-14T02:58:06.326Z,4.20
2022-09-14T02:59:06.289Z,4.40
2022-09-14T03:00:06.338Z,4.30
2022-09-14T03:01:06.282Z,4.60
2022-09-14T03:02:06.240Z,4.60
2022-09-14T03:03:06.136Z,4.50
2022-09-14T03:04:06.098Z,4.40
2022-09-14T03:05:06.058Z,4.30
2022-09-14T03:06:06.023Z,4.70
2022-09-14T03:07:05.999Z,4.60
2022-09-14T03:08:06.011Z,4.90
2022-09-14T03:09:05.909Z,5.10
2022-09-14T03:10:05.871Z,4.60
2022-09-14T03:11:05.835Z,4.90
2022-09-14T03:12:05.793Z,4.80
2022-09-14T03:13:05.771Z,5.10
2022-09-14T03:14:05.722Z,5.10
2022-09-14T03:15:05.687Z,5.10
2022-09-14T03:16:05.693Z,5.20
2022-09-14T03:17:05.605Z,5.70
2022-09-14T03:18:05.565Z,5.40
2022-09-14T03:19:05.537Z,5.60
2022-09-14T03:20:05.490Z,6.00
2022-09-14T03:21:05.449Z,5.90
2022-09-14T03:22:05.415Z,6.10
2022-09-14T03:23:05.373Z,5.80
2022-09-14T03:24:05.374Z,5.70
2022-09-14T03:25:05.297Z,5.90
2022-09-14T03:26:05.262Z,6.20
2022-09-14T03:27:05.223Z,6.30
2022-09-14T03:28:05.183Z,5.90
2022-09-14T03:29:05.159Z,5.90
2022-09-14T03:30:05.109Z,6.50
2022-09-14T03:31:05.105Z,6.30
2022-09-14T03:32:05.050Z,6.10
2022-09-14T03:33:04.992Z,5.80
2022-09-14T03:34:04.956Z,6.30
2022-09-14T03:35:04.929Z,6.30
2022-09-14T03:36:04.880Z,6.30
2022-09-14T03:37:04.843Z,6.40
2022-09-14T03:38:04.802Z,6.70
2022-09-14T03:39:04.766Z,6.80
2022-09-14T03:40:04.770Z,6.70
2022-09-14T03:41:04.702Z,6.90
2022-09-14T03:42:04.662Z,6.90
2022-09-14T03:43:04.632Z,6.90
2022-09-14T03:44:04.572Z,7.20
2022-09-14T03:45:04.533Z,6.80
2022-09-14T03:46:04.555Z,6.90
2022-09-14T03:47:04.458Z,7.30
2022-09-14T03:48:04.419Z,7.30
2022-09-14T03:49:04.388Z,7.10
2022-09-14T03:50:04.341Z,7.30
2022-09-14T03:51:04.302Z,7.20
2022-09-14T03:52:04.278Z,7.30
2022-09-14T03:53:04.227Z,7.40
2022-09-14T03:54:04.190Z,7.90
2022-09-14T03:55:04.151Z,8.30
2022-09-14T03:56:04.112Z,8.00
2022-09-14T03:57:04.075Z,8.40
2022-09-14T03:58:04.048Z,7.90
2022-09-14T03:59:03.995Z,8.10
2022-09-14T04:00:03.957Z,7.90
2022-09-14T04:01:03.923Z,8.60
2022-09-14T04:02:03.905Z,8.50
2022-09-14T04:03:03.915Z,8.50
2022-09-14T04:04:03.805Z,8.30
2022-09-14T04:05:03.765Z,7.70
2022-09-14T04:06:03.733Z,8.20
2022-09-14T04:07:03.690Z,8.20
2022-09-14T04:08:03.651Z,8.30
2022-09-14T04:09:03.623Z,8.60
2022-09-14T04:10:03.575Z,8.40
2022-09-14T04:11:03.535Z,8.60
2022-09-14T04:12:03.508Z,8.70
2022-09-14T04:13:03.459Z,8.60
2022-09-14T04:14:03.419Z,9.10
2022-09-14T04:15:03.394Z,8.60
2022-09-14T04:16:03.380Z,8.60
2022-09-14T04:17:03.306Z,8.10
2022-09-14T04:18:03.266Z,8.90
2022-09-14T04:19:03.231Z,8.20
2022-09-14T04:20:03.188Z,8.40
2022-09-14T04:21:07.887Z,8.70
2022-09-14T04:22:03.114Z,8.40
2022-09-14T04:23:03.073Z,8.20
2022-09-14T04:24:14.584Z,8.40
2022-09-14T04:25:02.999Z,8.50
2022-09-14T04:26:02.958Z,8.80
2022-09-14T04:27:02.935Z,7.70
2022-09-14T04:28:19.817Z,8.80
2022-09-14T04:29:02.850Z,8.40
2022-09-14T04:30:02.810Z,9.00
2022-09-14T04:31:02.846Z,8.30
2022-09-14T04:32:02.739Z,8.30
2022-09-14T04:33:02.702Z,8.60
2022-09-14T04:34:02.652Z,8.80
2022-09-14T04:35:02.613Z,8.80
2022-09-14T04:36:02.576Z,8.30
2022-09-14T04:37:02.537Z,8.70
2022-09-14T04:38:02.508Z,9.10
2022-09-14T04:39:02.460Z,9.60
2022-09-14T04:40:02.494Z,9.30
2022-09-14T04:41:02.383Z,9.10
2022-09-14T04:42:02.345Z,9.20
2022-09-14T04:43:02.306Z,9.30
2022-09-14T04:44:02.279Z,9.60
2022-09-14T04:45:02.229Z,9.40
2022-09-14T04:46:02.238Z,11.60
2022-09-14T04:47:02.194Z,11.00
2022-09-14T04:48:02.119Z,9.30
2022-09-14T04:49:02.096Z,8.90
2022-09-14T04:50:02.054Z,8.40
2022-09-14T04:51:02.005Z,8.40
2022-09-14T04:52:01.960Z,8.90
2022-09-14T04:53:01.927Z,8.80
2022-09-14T04:54:01.885Z,9.50
2022-09-14T04:55:01.876Z,8.80
2022-09-14T04:56:01.820Z,9.00
2022-09-14T04:57:01.804Z,8.40
2022-09-14T04:58:01.731Z,8.80
2022-09-14T04:59:01.697Z,8.40
2022-09-14T05:00:01.722Z,8.50
2022-09-14T05:01:01.631Z,9.10
2022-09-14T05:02:01.707Z,8.90
2022-09-14T05:03:01.602Z,9.10
2022-09-14T05:04:01.505Z,9.30
2022-09-14T05:05:01.465Z,9.10
2022-09-14T05:06:01.429Z,9.00
2022-09-14T05:07:01.389Z,9.20
2022-09-14T05:08:01.362Z,8.60
2022-09-14T05:09:01.315Z,8.70
2022-09-14T05:10:01.274Z,8.70
2022-09-14T05:11:01.238Z,8.10
2022-09-14T05:12:01.197Z,8.40
2022-09-14T05:13:01.162Z,7.90
2022-09-14T05:14:01.142Z,8.10
2022-09-14T05:15:01.087Z,8.20
2022-09-14T05:16:01.075Z,8.00
2022-09-14T05:17:01.006Z,8.00
2022-09-14T05:18:00.990Z,7.80
2022-09-14T05:19:00.938Z,7.70
2022-09-14T05:20:00.905Z,7.40
2022-09-14T05:21:03.986Z,7.20
2022-09-14T05:22:00.816Z,6.70
2022-09-14T05:23:00.779Z,6.50
2022-09-14T05:24:00.741Z,6.80
2022-09-14T05:25:00.703Z,6.80
2022-09-14T05:26:00.684Z,6.20
2022-09-14T05:27:02.327Z,6.60
2022-09-14T05:28:00.585Z,6.10
2022-09-14T05:29:00.554Z,6.00
2022-09-14T05:30:00.510Z,5.80
2022-09-14T05:31:00.522Z,5.60
2022-09-14T05:32:00.445Z,6.10
2022-09-14T05:33:00.396Z,5.30
2022-09-14T05:34:00.355Z,6.10
2022-09-14T05:35:00.318Z,5.50
2022-09-14T05:36:00.280Z,5.80
2022-09-14T05:37:00.257Z,5.20
2022-09-14T05:38:00.207Z,5.40
2022-09-14T05:39:00.168Z,5.30
2022-09-14T05:40:00.301Z,5.40
2022-09-14T05:41:00.087Z,5.00
2022-09-14T05:42:00.060Z,5.00
2022-09-14T05:43:00.024Z,5.40
2022-09-14T05:43:59.989Z,5.80
2022-09-14T05:44:59.939Z,5.30
2022-09-14T05:45:59.910Z,5.10
2022-09-14T05:46:59.858Z,5.20
2022-09-14T05:47:59.820Z,5.30
2022-09-14T05:48:59.783Z,5.50
2022-09-14T05:49:59.755Z,5.30
2022-09-14T05:50:59.702Z,5.60
2022-09-14T05:51:59.675Z,5.50
2022-09-14T05:52:59.626Z,5.30
2022-09-14T05:53:59.665Z,5.40
2022-09-14T05:54:59.550Z,5.40
2022-09-14T05:55:59.510Z,5.30
2022-09-14T05:56:59.483Z,5.30
2022-09-14T05:57:59.432Z,5.40
2022-09-14T05:58:59.394Z,5.30
2022-09-14T05:59:59.357Z,5.10
2022-09-14T06:00:59.320Z,5.10
2022-09-14T06:01:59.313Z,4.90
2022-09-14T06:02:59.253Z,5.10
2022-09-14T06:03:59.223Z,5.40
2022-09-14T06:04:59.209Z,5.20
2022-09-14T06:05:59.128Z,5.00
2022-09-14T06:07:17.556Z,4.90
2022-09-14T06:07:59.046Z,4.80
2022-09-14T06:08:59.026Z,4.70
2022-09-14T06:09:58.970Z,4.50
2022-09-14T06:10:58.931Z,4.50
2022-09-14T06:11:58.896Z,4.60
2022-09-14T06:12:58.853Z,4.70
2022-09-14T06:13:58.817Z,4.60
2022-09-14T06:14:58.787Z,4.50
2022-09-14T06:15:58.739Z,4.60
2022-09-14T06:16:58.713Z,4.60
2022-09-14T06:17:58.660Z,3.90
2022-09-14T06:18:58.620Z,4.70
2022-09-14T06:20:03.514Z,4.40
2022-09-14T06:20:58.549Z,4.50
2022-09-14T06:21:58.504Z,4.30
2022-09-14T06:22:58.481Z,4.50
2022-09-14T06:23:58.436Z,4.70
2022-09-14T06:24:58.389Z,4.70
2022-09-14T06:25:58.349Z,4.60
2022-09-14T06:26:58.314Z,4.50
2022-09-14T06:27:58.280Z,4.20
2022-09-14T06:28:58.251Z,4.30
2022-09-14T06:29:58.197Z,4.30
2022-09-14T06:30:58.158Z,4.50
2022-09-14T06:31:58.118Z,4.10
2022-09-14T06:32:58.087Z,3.70
2022-09-14T06:33:58.040Z,4.30
2022-09-14T06:34:58.042Z,3.90
2022-09-14T06:35:57.965Z,4.00
2022-09-14T06:36:57.923Z,3.90
2022-09-14T06:37:57.887Z,4.30
2022-09-14T06:38:57.846Z,4.30
2022-09-14T06:39:58.070Z,3.90
2022-09-14T06:40:57.773Z,3.90
2022-09-14T06:41:57.732Z,4.10
2022-09-14T06:42:57.695Z,3.90
2022-09-14T06:43:57.657Z,4.80
2022-09-14T06:44:57.617Z,4.20
2022-09-14T06:45:57.634Z,3.80
2022-09-14T06:46:57.537Z,4.00
2022-09-14T06:47:57.497Z,3.70
2022-09-14T06:48:57.467Z,4.00
2022-09-14T06:49:57.422Z,4.00
2022-09-14T06:50:57.389Z,4.30
2022-09-14T06:51:57.494Z,4.10
2022-09-14T06:52:57.306Z,4.20
2022-09-14T06:53:57.268Z,4.50
2022-09-14T06:54:57.230Z,4.00
2022-09-14T06:55:57.188Z,3.90
2022-09-14T06:56:57.160Z,4.20
2022-09-14T06:57:57.115Z,4.30
2022-09-14T06:58:57.074Z,4.20
2022-09-14T06:59:57.036Z,4.70
2022-09-14T07:00:57.000Z,4.20
2022-09-14T07:01:56.969Z,4.10
2022-09-14T07:02:56.953Z,4.10
2022-09-14T07:03:56.893Z,4.00
2022-09-14T07:04:56.842Z,4.40
2022-09-14T07:05:56.804Z,3.90
2022-09-14T07:06:56.769Z,4.20
2022-09-14T07:07:56.724Z,3.90
2022-09-14T07:08:56.697Z,3.70
2022-09-14T07:09:56.646Z,3.80
2022-09-14T07:10:56.610Z,3.90
2022-09-14T07:11:56.571Z,3.90
2022-09-14T07:12:56.533Z,3.90
2022-09-14T07:13:56.494Z,4.10
2022-09-14T07:14:56.471Z,4.20
2022-09-14T07:15:56.421Z,4.10
2022-09-14T07:16:56.378Z,4.10
2022-09-14T07:17:56.340Z,4.10
2022-09-14T07:18:56.302Z,4.30
2022-09-14T07:19:56.260Z,4.00
2022-09-14T07:20:56.233Z,4.20
2022-09-14T07:21:56.184Z,4.10
2022-09-14T07:22:56.145Z,4.40
2022-09-14T07:23:56.105Z,4.10
2022-09-14T07:24:56.068Z,4.30
2022-09-14T07:25:56.042Z,4.00
2022-09-14T07:26:55.993Z,4.20
2022-09-14T07:27:55.951Z,5.00
2022-09-14T07:28:55.914Z,4.30
2022-09-14T07:29:55.876Z,5.00
2022-09-14T07:30:58.941Z,4.50
2022-09-14T07:31:55.809Z,4.90
2022-09-14T07:32:55.759Z,5.00
2022-09-14T07:33:55.720Z,4.40
2022-09-14T07:34:55.682Z,4.50
2022-09-14T07:35:55.656Z,4.80
2022-09-14T07:36:55.604Z,4.70
2022-09-14T07:37:55.565Z,4.50
2022-09-14T07:38:55.527Z,4.50
2022-09-14T07:39:55.553Z,5.40
2022-09-14T07:40:55.449Z,4.60
2022-09-14T07:41:55.496Z,5.00
2022-09-14T07:42:57.571Z,5.00
2022-09-14T07:43:55.343Z,5.10
2022-09-14T07:44:55.302Z,4.70
2022-09-14T07:45:55.371Z,5.40
2022-09-14T07:46:55.218Z,5.10
2022-09-14T07:47:55.176Z,5.20
2022-09-14T07:48:55.142Z,5.10
2022-09-14T07:49:55.157Z,5.60
2022-09-14T07:50:55.063Z,6.10
2022-09-14T07:51:55.030Z,5.30
2022-09-14T07:52:54.986Z,5.90
2022-09-14T07:53:54.965Z,5.60
2022-09-14T07:54:54.925Z,5.40
2022-09-14T07:55:54.868Z,5.70
2022-09-14T07:56:54.828Z,5.20
2022-09-14T07:59:42.289Z,5.70
2022-09-14T08:00:26.809Z,5.90
2022-09-14T08:01:26.778Z,6.20
2022-09-14T08:02:26.761Z,6.00
2022-09-14T08:03:26.688Z,6.20
2022-09-14T08:04:26.642Z,6.50
2022-09-14T08:05:26.600Z,6.30
2022-09-14T08:06:27.472Z,5.90
2022-09-14T08:07:26.529Z,6.30
2022-09-14T08:08:26.486Z,6.20
2022-09-14T08:09:26.444Z,6.30
2022-09-14T08:10:26.406Z,6.30
2022-09-14T08:11:26.370Z,6.30
2022-09-14T08:12:26.329Z,6.30
2022-09-14T08:13:26.303Z,6.10
2022-09-14T08:14:26.250Z,6.30
2022-09-14T08:15:28.533Z,6.30
2022-09-14T08:16:26.221Z,6.00
2022-09-14T08:17:26.135Z,5.70
2022-09-14T08:18:26.097Z,5.90
2022-09-14T08:19:26.072Z,5.00
2022-09-14T08:20:26.034Z,5.30
2022-09-14T08:21:25.984Z,5.50
2022-09-14T08:22:25.944Z,5.50
2022-09-14T08:23:25.906Z,6.00
2022-09-14T08:24:25.868Z,5.50
2022-09-14T08:25:25.841Z,5.70
2022-09-14T08:26:25.789Z,5.20
2022-09-14T08:27:25.751Z,5.40
2022-09-14T08:28:25.716Z,5.70
2022-09-14T08:29:25.678Z,5.40
2022-09-14T08:30:25.637Z,5.40
2022-09-14T08:31:25.658Z,4.80
2022-09-14T08:32:25.566Z,5.10
2022-09-14T08:33:25.523Z,5.40
2022-09-14T08:34:25.482Z,5.10
2022-09-14T08:35:46.803Z,4.50
2022-09-14T08:36:25.415Z,5.00
2022-09-14T08:37:25.377Z,4.70
2022-09-14T08:38:25.338Z,4.80
2022-09-14T08:39:25.294Z,4.90
2022-09-14T08:40:25.352Z,4.60
2022-09-14T08:41:25.214Z,4.60
2022-09-14T08:42:25.189Z,5.20
2022-09-14T08:43:25.149Z,4.90
2022-09-14T08:44:25.098Z,4.90
2022-09-14T08:45:25.104Z,4.60
2022-09-14T08:46:25.024Z,4.70
2022-09-14T08:47:24.984Z,4.90
2022-09-14T08:48:24.958Z,5.10
2022-09-14T08:49:24.905Z,4.90
2022-09-14T08:50:24.868Z,5.00
2022-09-14T08:51:24.831Z,4.90
2022-09-14T08:52:24.792Z,4.80
2022-09-14T08:53:24.752Z,4.70
2022-09-14T08:54:24.725Z,4.50
2022-09-14T08:55:24.679Z,4.70
2022-09-14T08:56:24.643Z,4.70
2022-09-14T08:57:24.603Z,4.40
2022-09-14T08:58:24.563Z,4.40
2022-09-14T08:59:24.588Z,4.60
2022-09-14T09:00:24.514Z,4.50
2022-09-14T09:01:24.533Z,4.40
2022-09-14T09:02:24.406Z,4.50
2022-09-14T09:03:24.503Z,4.50
2022-09-14T09:04:24.422Z,4.30
2022-09-14T09:05:24.292Z,4.70
2022-09-14T09:06:24.267Z,4.60
2022-09-14T09:07:24.214Z,4.80
2022-09-14T09:08:24.778Z,4.80
2022-09-14T09:09:24.143Z,4.70
2022-09-14T09:10:24.112Z,4.80
2022-09-14T09:11:24.076Z,5.10
2022-09-14T09:12:24.046Z,5.10
2022-09-14T09:13:23.985Z,5.00
2022-09-14T09:14:23.948Z,4.90
2022-09-14T09:15:23.908Z,4.90
2022-09-14T09:16:23.934Z,5.00
2022-09-14T09:17:23.845Z,4.90
2022-09-14T09:18:23.796Z,4.80
2022-09-14T09:19:27.899Z,5.40
2022-09-14T09:20:23.718Z,5.20
2022-09-14T09:21:23.677Z,4.70
2022-09-14T09:22:23.640Z,4.80
2022-09-14T09:23:23.613Z,5.30
2022-09-14T09:24:23.565Z,5.30
2022-09-14T09:25:23.534Z,5.50
2022-09-14T09:26:23.486Z,5.30
2022-09-14T09:27:23.445Z,5.60
2022-09-14T09:28:23.420Z,5.10
2022-09-14T09:29:23.368Z,5.30
2022-09-14T09:30:23.330Z,5.50
2022-09-14T09:31:23.386Z,5.20
2022-09-14T09:32:23.255Z,5.00
2022-09-14T09:33:23.229Z,5.20
2022-09-14T09:34:23.176Z,5.40
2022-09-14T09:35:23.138Z,5.40
2022-09-14T09:36:23.103Z,6.00
2022-09-14T09:37:23.066Z,5.60
2022-09-14T09:38:23.024Z,5.80
2022-09-14T09:39:22.996Z,5.70
2022-09-14T09:40:23.006Z,5.70
2022-09-14T09:41:22.906Z,5.90
2022-09-14T09:42:22.900Z,6.00
2022-09-14T09:43:38.947Z,6.00
2022-09-14T09:44:22.804Z,5.70
2022-09-14T09:45:22.767Z,6.00
2022-09-14T09:46:22.787Z,6.30
2022-09-14T09:47:22.682Z,6.60
2022-09-14T09:48:22.643Z,6.30
2022-09-14T09:49:22.605Z,6.20
2022-09-14T09:50:22.574Z,6.50
2022-09-14T09:51:24.153Z,6.40
2022-09-14T09:52:22.490Z,6.80
2022-09-14T09:53:22.454Z,6.70
2022-09-14T09:54:22.419Z,6.90
2022-09-14T09:55:22.376Z,7.20
2022-09-14T09:56:22.353Z,7.30
2022-09-14T09:57:22.300Z,6.90
2022-09-14T09:58:22.262Z,6.90
2022-09-14T09:59:22.226Z,7.50
2022-09-14T10:00:22.188Z,7.60
2022-09-14T10:01:22.192Z,7.30
2022-09-14T10:02:22.181Z,7.70
2022-09-14T10:03:22.073Z,7.60
2022-09-14T10:04:22.035Z,7.40
2022-09-14T10:05:21.998Z,6.80
2022-09-14T10:06:21.969Z,6.90
2022-09-14T10:07:21.929Z,6.90
2022-09-14T10:08:21.886Z,6.80
2022-09-14T10:09:21.849Z,6.70
2022-09-14T10:10:21.807Z,6.80
2022-09-14T10:11:21.769Z,6.50
2022-09-14T10:12:21.744Z,6.20
2022-09-14T10:13:21.692Z,6.80
2022-09-14T10:14:21.657Z,6.70
2022-09-14T10:15:21.625Z,6.40
2022-09-14T10:16:21.624Z,6.30
2022-09-14T10:17:21.540Z,6.00
2022-09-14T10:18:21.520Z,6.10
2022-09-14T10:19:21.464Z,6.20
2022-09-14T10:20:21.425Z,6.60
2022-09-14T10:21:21.389Z,6.00
2022-09-14T10:22:25.799Z,6.10
2022-09-14T10:23:21.309Z,6.20
2022-09-14T10:24:21.284Z,6.70
2022-09-14T10:25:21.238Z,6.70
2022-09-14T10:26:21.200Z,6.70
2022-09-14T10:27:21.161Z,6.00
2022-09-14T10:28:21.132Z,6.10
2022-09-14T10:29:21.083Z,6.80
2022-09-14T10:30:21.070Z,7.00
2022-09-14T10:31:21.062Z,7.20
2022-09-14T10:32:20.971Z,7.30
2022-09-14T10:33:20.929Z,7.20
2022-09-14T10:34:20.891Z,7.60
2022-09-14T10:35:20.861Z,7.30
2022-09-14T10:36:20.832Z,7.20
2022-09-14T10:37:20.781Z,8.20
2022-09-14T10:38:20.740Z,8.20
2022-09-14T10:39:25.376Z,8.90
2022-09-14T10:40:20.719Z,9.00
2022-09-14T10:41:20.642Z,8.40
2022-09-14T10:42:20.591Z,8.20
2022-09-14T10:43:20.552Z,7.60
2022-09-14T10:44:20.516Z,7.70
2022-09-14T10:45:20.475Z,7.90
2022-09-14T10:46:20.483Z,7.30
2022-09-14T10:47:20.398Z,7.80
2022-09-14T10:48:20.365Z,7.90
2022-09-14T10:49:20.323Z,7.90
2022-09-14T10:50:20.286Z,8.00
2022-09-14T10:51:20.246Z,7.30
2022-09-14T10:52:20.223Z,7.00
2022-09-14T10:53:20.179Z,7.40
2022-09-14T10:54:20.133Z,7.80
2022-09-14T10:55:20.099Z,7.70
2022-09-14T10:56:20.058Z,8.30
2022-09-14T10:57:20.032Z,7.80
2022-09-14T10:58:23.820Z,6.90
2022-09-14T10:59:19.946Z,7.00
2022-09-14T11:00:19.910Z,6.30
2022-09-14T11:01:19.927Z,5.60
2022-09-14T11:02:19.956Z,5.90
2022-09-14T11:03:19.809Z,5.50
2022-09-14T11:04:19.761Z,5.80
2022-09-14T11:05:19.719Z,5.30
2022-09-14T11:06:19.681Z,5.60
2022-09-14T11:07:19.643Z,5.70
2022-09-14T11:08:19.621Z,5.60
2022-09-14T11:09:19.566Z,5.70
2022-09-14T11:10:19.537Z,5.80
2022-09-14T11:11:19.491Z,5.70
2022-09-14T11:12:19.454Z,5.30
2022-09-14T11:13:19.417Z,5.60
2022-09-14T11:14:19.390Z,5.60
2022-09-14T11:15:19.336Z,5.50
2022-09-14T11:16:19.349Z,5.50
2022-09-14T11:17:19.261Z,5.80
2022-09-14T11:18:19.226Z,6.00
2022-09-14T11:19:19.185Z,5.90
2022-09-14T11:20:19.158Z,5.70
2022-09-14T11:21:19.117Z,5.70
2022-09-14T11:22:19.072Z,5.50
2022-09-14T11:23:19.103Z,5.40
2022-09-14T11:24:18.995Z,5.50
2022-09-14T11:25:18.970Z,5.80
2022-09-14T11:26:18.923Z,5.60
2022-09-14T11:27:18.882Z,5.20
2022-09-14T11:28:18.845Z,4.90
2022-09-14T11:29:18.805Z,5.30
2022-09-14T11:30:18.780Z,5.40
2022-09-14T11:31:18.831Z,5.00
2022-09-14T11:32:21.389Z,5.60
2022-09-14T11:33:18.655Z,5.30
2022-09-14T11:34:18.620Z,5.30
2022-09-14T11:35:18.597Z,5.50
2022-09-14T11:36:18.547Z,5.30
2022-09-14T11:37:18.501Z,4.80
2022-09-14T11:38:18.471Z,4.90
2022-09-14T11:39:18.422Z,4.50
2022-09-14T11:40:18.444Z,5.20
2022-09-14T11:41:18.363Z,4.60
2022-09-14T11:42:18.316Z,4.60
2022-09-14T11:43:18.282Z,5.10
2022-09-14T11:44:18.241Z,4.60
2022-09-14T11:45:18.205Z,4.40
2022-09-14T11:46:18.258Z,4.70
2022-09-14T11:47:18.137Z,4.60
2022-09-14T11:48:41.925Z,4.60
2022-09-14T11:49:18.049Z,4.50
2022-09-14T11:50:18.013Z,4.30
2022-09-14T11:51:17.977Z,4.40
2022-09-14T11:52:17.938Z,4.40
2022-09-14T11:53:17.948Z,4.10
2022-09-14T11:54:17.868Z,4.10
2022-09-14T11:55:17.855Z,3.90
2022-09-14T11:56:17.786Z,4.10
2022-09-14T11:57:17.768Z,3.90
2022-09-14T11:58:17.710Z,4.00
2022-09-14T11:59:17.678Z,3.90
2022-09-14T12:00:17.636Z,4.00
2022-09-14T12:01:17.599Z,3.70
2022-09-14T12:02:17.596Z,4.00
2022-09-14T12:03:17.612Z,3.50
2022-09-14T12:04:17.623Z,4.00
2022-09-14T12:05:17.449Z,3.70
2022-09-14T12:06:17.410Z,3.70
2022-09-14T12:07:17.396Z,3.50
2022-09-14T12:08:17.336Z,3.30
2022-09-14T12:09:17.313Z,3.50
2022-09-14T12:10:17.276Z,3.50
2022-09-14T12:11:17.237Z,3.30
2022-09-14T12:12:17.184Z,3.30
2022-09-14T12:13:17.169Z,3.40
2022-09-14T12:14:17.108Z,3.00
2022-09-14T12:15:17.074Z,3.10
2022-09-14T12:16:17.130Z,3.00
2022-09-14T12:17:38.276Z,3.40
2022-09-14T12:18:16.958Z,3.30
2022-09-14T12:19:16.921Z,3.20
2022-09-14T12:20:20.258Z,3.00
2022-09-14T12:21:16.853Z,3.10
2022-09-14T12:22:16.817Z,3.10
2022-09-14T12:23:16.824Z,2.90
2022-09-14T12:24:16.731Z,2.90
2022-09-14T12:25:16.694Z,3.10
2022-09-14T12:26:16.655Z,3.00
2022-09-14T12:27:16.618Z,3.30
2022-09-14T12:28:16.601Z,3.60
2022-09-14T12:29:16.544Z,3.50
2022-09-14T12:30:16.504Z,3.40
2022-09-14T12:31:16.499Z,3.50
2022-09-14T12:32:16.437Z,3.50
2022-09-14T12:33:16.392Z,3.70
2022-09-14T12:34:16.366Z,3.40
2022-09-14T12:35:16.327Z,3.60
2022-09-14T12:36:16.282Z,3.50
2022-09-14T12:37:16.244Z,3.00
2022-09-14T12:38:16.209Z,3.40
2022-09-14T12:39:16.184Z,3.50
2022-09-14T12:40:16.167Z,3.50
2022-09-14T12:41:16.089Z,3.20
2022-09-14T12:42:16.050Z,3.50
2022-09-14T12:43:16.013Z,3.20
2022-09-14T12:44:15.975Z,3.70
2022-09-14T12:45:15.952Z,3.60
2022-09-14T12:46:15.925Z,3.90
2022-09-14T12:47:15.863Z,4.00
2022-09-14T12:48:15.827Z,3.70
2022-09-14T12:49:15.786Z,3.60
2022-09-14T12:50:15.758Z,3.60
2022-09-14T12:51:15.712Z,3.50
2022-09-14T12:52:15.673Z,3.80
2022-09-14T12:53:15.636Z,3.80
2022-09-14T12:54:15.597Z,4.10
2022-09-14T12:55:15.558Z,3.70
2022-09-14T12:56:15.533Z,3.70
2022-09-14T12:57:15.483Z,4.20
2022-09-14T12:58:15.445Z,4.10
2022-09-14T12:59:15.505Z,4.10
2022-09-14T13:00:15.371Z,3.90
2022-09-14T13:01:15.424Z,4.00
2022-09-14T13:02:15.412Z,4.00
2022-09-14T13:03:15.260Z,4.40
2022-09-14T13:04:15.222Z,4.20
2022-09-14T13:05:15.179Z,4.30
2022-09-14T13:06:15.143Z,4.50
2022-09-14T13:07:15.104Z,4.40
2022-09-14T13:08:15.078Z,4.70
2022-09-14T13:09:15.029Z,4.90
2022-09-14T13:10:15.007Z,4.50
2022-09-14T13:11:14.951Z,4.60
2022-09-14T13:12:14.921Z,4.60
2022-09-14T13:13:14.889Z,5.20
2022-09-14T13:14:14.833Z,5.40
2022-09-14T13:15:14.800Z,5.20
2022-09-14T13:16:14.807Z,5.70
2022-09-14T13:17:14.728Z,5.20
2022-09-14T13:18:14.702Z,5.20
2022-09-14T13:19:14.649Z,5.20